sensor_id;sensor_type;location;lat;lon;timestamp;temperature;humidity
2825;DHT22;1420;51.324;12.344;2023-07-29T00:01:15;19.10;99.90
2825;DHT22;1420;51.324;12.344;2023-07-29T00:03:42;19.10;99.90
2825;DHT22;1420;51.324;12.344;2023-07-29T00:06:09;19.10;99.90
2825;DHT22;1420;51.324;12.344;2023-07-29T00:08:36;19.40;99.90
2825;DHT22;1420;51.324;12.344;2023-07-29T00:11:03;19.50;99.90
2825;DHT22;1420;51.324;12.344;2023-07-29T00:13:31;19.40;99.90
2825;DHT22;1420;51.324;12.344;2023-07-29T00:15:58;19.30;99.90
2825;DHT22;1420;51.324;12.344;2023-07-29T00:18:25;19.20;99.90
2825;DHT22;1420;51.324;12.344;2023-07-29T00:20:52;19.30;99.90
2825;DHT22;1420;51.324;12.344;2023-07-29T00:23:19;19.60;99.90
2825;DHT22;1420;51.324;12.344;2023-07-29T00:25:47;19.60;99.90
2825;DHT22;1420;51.324;12.344;2023-07-29T00:28:14;19.50;99.90
2825;DHT22;1420;51.324;12.344;2023-07-29T00:30:41;19.70;99.90
2825;DHT22;1420;51.324;12.344;2023-07-29T00:33:08;19.80;99.90
2825;DHT22;1420;51.324;12.344;2023-07-29T00:35:35;19.70;99.90
2825;DHT22;1420;51.324;12.344;2023-07-29T00:38:03;19.60;99.90
2825;DHT22;1420;51.324;12.344;2023-07-29T00:40:30;19.80;99.90
2825;DHT22;1420;51.324;12.344;2023-07-29T00:42:57;19.70;99.90
2825;DHT22;1420;51.324;12.344;2023-07-29T00:45:24;19.60;99.90
2825;DHT22;1420;51.324;12.344;2023-07-29T00:47:52;19.60;99.90
2825;DHT22;1420;51.324;12.344;2023-07-29T00:50:19;19.70;99.90
2825;DHT22;1420;51.324;12.344;2023-07-29T00:52:46;19.60;99.90
2825;DHT22;1420;51.324;12.344;2023-07-29T00:55:13;19.80;99.90
2825;DHT22;1420;51.324;12.344;2023-07-29T00:57:40;20.00;99.90
2825;DHT22;1420;51.324;12.344;2023-07-29T01:00:08;19.90;99.90
2825;DHT22;1420;51.324;12.344;2023-07-29T01:02:36;19.60;99.90
2825;DHT22;1420;51.324;12.344;2023-07-29T01:05:03;19.60;99.90
2825;DHT22;1420;51.324;12.344;2023-07-29T01:07:37;19.40;99.90
2825;DHT22;1420;51.324;12.344;2023-07-29T01:10:02;19.40;99.90
2825;DHT22;1420;51.324;12.344;2023-07-29T01:12:36;19.30;99.90
2825;DHT22;1420;51.324;12.344;2023-07-29T01:15:09;19.20;99.90
2825;DHT22;1420;51.324;12.344;2023-07-29T01:17:33;19.20;99.90
2825;DHT22;1420;51.324;12.344;2023-07-29T01:20:07;19.20;99.90
2825;DHT22;1420;51.324;12.344;2023-07-29T01:22:34;19.40;99.90
2825;DHT22;1420;51.324;12.344;2023-07-29T01:25:00;19.40;99.90
2825;DHT22;1420;51.324;12.344;2023-07-29T01:27:27;19.60;99.90
2825;DHT22;1420;51.324;12.344;2023-07-29T01:29:56;19.40;99.90
2825;DHT22;1420;51.324;12.344;2023-07-29T01:32:35;19.40;99.90
2825;DHT22;1420;51.324;12.344;2023-07-29T01:35:05;19.40;99.90
2825;DHT22;1420;51.324;12.344;2023-07-29T01:37:32;19.80;99.90
2825;DHT22;1420;51.324;12.344;2023-07-29T01:39:58;19.70;99.90
2825;DHT22;1420;51.324;12.344;2023-07-29T01:42:25;20.00;99.90
2825;DHT22;1420;51.324;12.344;2023-07-29T01:44:52;20.00;99.90
2825;DHT22;1420;51.324;12.344;2023-07-29T01:47:20;20.10;99.90
2825;DHT22;1420;51.324;12.344;2023-07-29T01:49:47;20.00;99.90
2825;DHT22;1420;51.324;12.344;2023-07-29T01:52:14;20.00;99.90
2825;DHT22;1420;51.324;12.344;2023-07-29T01:54:41;19.90;99.90
2825;DHT22;1420;51.324;12.344;2023-07-29T01:57:08;19.70;99.90
2825;DHT22;1420;51.324;12.344;2023-07-29T01:59:36;19.60;99.90
2825;DHT22;1420;51.324;12.344;2023-07-29T02:02:03;19.50;99.90
2825;DHT22;1420;51.324;12.344;2023-07-29T02:04:31;19.60;99.90
2825;DHT22;1420;51.324;12.344;2023-07-29T02:06:59;19.50;99.90
2825;DHT22;1420;51.324;12.344;2023-07-29T02:09:26;19.50;99.90
2825;DHT22;1420;51.324;12.344;2023-07-29T02:11:53;19.60;99.90
2825;DHT22;1420;51.324;12.344;2023-07-29T02:14:20;19.60;99.90
2825;DHT22;1420;51.324;12.344;2023-07-29T02:16:48;19.50;99.90
2825;DHT22;1420;51.324;12.344;2023-07-29T02:19:15;19.40;99.90
2825;DHT22;1420;51.324;12.344;2023-07-29T02:21:42;19.50;99.90
2825;DHT22;1420;51.324;12.344;2023-07-29T02:24:09;19.50;99.90
2825;DHT22;1420;51.324;12.344;2023-07-29T02:26:36;19.60;99.90
2825;DHT22;1420;51.324;12.344;2023-07-29T02:29:04;19.50;99.90
2825;DHT22;1420;51.324;12.344;2023-07-29T02:31:31;19.50;99.90
2825;DHT22;1420;51.324;12.344;2023-07-29T02:33:58;19.40;99.90
2825;DHT22;1420;51.324;12.344;2023-07-29T02:36:25;19.30;99.90
2825;DHT22;1420;51.324;12.344;2023-07-29T02:38:52;19.20;99.90
2825;DHT22;1420;51.324;12.344;2023-07-29T02:41:20;19.20;99.90
2825;DHT22;1420;51.324;12.344;2023-07-29T02:43:48;19.10;99.90
2825;DHT22;1420;51.324;12.344;2023-07-29T02:46:15;19.00;99.90
2825;DHT22;1420;51.324;12.344;2023-07-29T02:48:43;19.10;99.90
2825;DHT22;1420;51.324;12.344;2023-07-29T02:51:09;19.10;99.90
2825;DHT22;1420;51.324;12.344;2023-07-29T02:53:37;19.10;99.90
2825;DHT22;1420;51.324;12.344;2023-07-29T02:56:04;19.10;99.90
2825;DHT22;1420;51.324;12.344;2023-07-29T02:58:31;19.10;99.90
2825;DHT22;1420;51.324;12.344;2023-07-29T03:01:02;19.10;99.90
2825;DHT22;1420;51.324;12.344;2023-07-29T03:03:30;19.10;99.90
2825;DHT22;1420;51.324;12.344;2023-07-29T03:06:00;19.10;99.90
2825;DHT22;1420;51.324;12.344;2023-07-29T03:08:26;19.00;99.90
2825;DHT22;1420;51.324;12.344;2023-07-29T03:10:54;18.90;99.90
2825;DHT22;1420;51.324;12.344;2023-07-29T03:13:21;19.00;99.90
2825;DHT22;1420;51.324;12.344;2023-07-29T03:15:48;19.00;99.90
2825;DHT22;1420;51.324;12.344;2023-07-29T03:18:15;19.20;99.90
2825;DHT22;1420;51.324;12.344;2023-07-29T03:20:42;19.10;99.90
2825;DHT22;1420;51.324;12.344;2023-07-29T03:23:09;19.10;99.90
2825;DHT22;1420;51.324;12.344;2023-07-29T03:25:37;19.00;99.90
2825;DHT22;1420;51.324;12.344;2023-07-29T03:28:04;18.90;99.90
2825;DHT22;1420;51.324;12.344;2023-07-29T03:30:31;18.80;99.90
2825;DHT22;1420;51.324;12.344;2023-07-29T03:32:58;19.00;99.90
2825;DHT22;1420;51.324;12.344;2023-07-29T03:35:26;18.70;99.90
2825;DHT22;1420;51.324;12.344;2023-07-29T03:37:54;18.70;99.90
2825;DHT22;1420;51.324;12.344;2023-07-29T03:40:22;18.60;99.90
2825;DHT22;1420;51.324;12.344;2023-07-29T03:42:50;18.80;99.90
2825;DHT22;1420;51.324;12.344;2023-07-29T03:45:18;18.60;99.90
2825;DHT22;1420;51.324;12.344;2023-07-29T03:47:46;18.80;99.90
2825;DHT22;1420;51.324;12.344;2023-07-29T03:50:14;18.60;99.90
2825;DHT22;1420;51.324;12.344;2023-07-29T03:52:42;18.40;99.90
2825;DHT22;1420;51.324;12.344;2023-07-29T03:55:09;18.40;99.90
2825;DHT22;1420;51.324;12.344;2023-07-29T03:57:36;18.60;99.90
2825;DHT22;1420;51.324;12.344;2023-07-29T04:00:04;18.70;99.90
2825;DHT22;1420;51.324;12.344;2023-07-29T04:02:32;18.60;99.90
2825;DHT22;1420;51.324;12.344;2023-07-29T04:05:00;18.80;99.90
2825;DHT22;1420;51.324;12.344;2023-07-29T04:07:27;18.80;99.90
2825;DHT22;1420;51.324;12.344;2023-07-29T04:09:54;18.70;99.90
2825;DHT22;1420;51.324;12.344;2023-07-29T04:12:21;18.70;99.90
2825;DHT22;1420;51.324;12.344;2023-07-29T04:14:49;18.80;99.90
2825;DHT22;1420;51.324;12.344;2023-07-29T04:17:16;18.90;99.90
2825;DHT22;1420;51.324;12.344;2023-07-29T04:19:44;19.00;99.90
2825;DHT22;1420;51.324;12.344;2023-07-29T04:22:13;18.90;99.90
2825;DHT22;1420;51.324;12.344;2023-07-29T04:24:40;18.90;99.90
2825;DHT22;1420;51.324;12.344;2023-07-29T04:27:07;18.90;99.90
2825;DHT22;1420;51.324;12.344;2023-07-29T04:29:34;18.90;99.90
2825;DHT22;1420;51.324;12.344;2023-07-29T04:32:03;18.70;99.90
2825;DHT22;1420;51.324;12.344;2023-07-29T04:34:30;18.70;99.90
2825;DHT22;1420;51.324;12.344;2023-07-29T04:36:57;18.60;99.90
2825;DHT22;1420;51.324;12.344;2023-07-29T04:39:24;18.70;99.90
2825;DHT22;1420;51.324;12.344;2023-07-29T04:41:52;18.90;99.90
2825;DHT22;1420;51.324;12.344;2023-07-29T04:44:19;18.80;99.90
2825;DHT22;1420;51.324;12.344;2023-07-29T04:46:46;19.00;99.90
2825;DHT22;1420;51.324;12.344;2023-07-29T04:49:13;19.10;99.90
2825;DHT22;1420;51.324;12.344;2023-07-29T04:51:40;19.20;99.90
2825;DHT22;1420;51.324;12.344;2023-07-29T04:54:08;19.40;99.90
2825;DHT22;1420;51.324;12.344;2023-07-29T04:56:35;19.50;99.90
2825;DHT22;1420;51.324;12.344;2023-07-29T04:59:02;19.40;99.90
2825;DHT22;1420;51.324;12.344;2023-07-29T05:01:29;19.50;99.90
2825;DHT22;1420;51.324;12.344;2023-07-29T05:03:57;19.70;99.90
2825;DHT22;1420;51.324;12.344;2023-07-29T05:06:25;19.80;99.90
2825;DHT22;1420;51.324;12.344;2023-07-29T05:08:53;20.00;99.90
2825;DHT22;1420;51.324;12.344;2023-07-29T05:11:21;20.00;99.90
2825;DHT22;1420;51.324;12.344;2023-07-29T05:13:49;20.00;99.90
2825;DHT22;1420;51.324;12.344;2023-07-29T05:16:17;20.20;99.90
2825;DHT22;1420;51.324;12.344;2023-07-29T05:18:45;20.20;99.90
2825;DHT22;1420;51.324;12.344;2023-07-29T05:21:12;20.10;99.90
2825;DHT22;1420;51.324;12.344;2023-07-29T05:23:40;20.20;99.90
2825;DHT22;1420;51.324;12.344;2023-07-29T05:26:07;20.40;99.90
2825;DHT22;1420;51.324;12.344;2023-07-29T05:28:34;20.60;99.90
2825;DHT22;1420;51.324;12.344;2023-07-29T05:31:01;20.70;99.90
2825;DHT22;1420;51.324;12.344;2023-07-29T05:33:28;20.60;99.90
2825;DHT22;1420;51.324;12.344;2023-07-29T05:35:55;20.70;99.90
2825;DHT22;1420;51.324;12.344;2023-07-29T05:38:23;20.70;99.90
2825;DHT22;1420;51.324;12.344;2023-07-29T05:40:50;20.80;99.90
2825;DHT22;1420;51.324;12.344;2023-07-29T05:43:17;20.80;99.90
2825;DHT22;1420;51.324;12.344;2023-07-29T05:45:44;20.90;99.90
2825;DHT22;1420;51.324;12.344;2023-07-29T05:48:11;20.80;99.90
2825;DHT22;1420;51.324;12.344;2023-07-29T05:50:39;21.00;99.90
2825;DHT22;1420;51.324;12.344;2023-07-29T05:53:06;21.30;99.90
2825;DHT22;1420;51.324;12.344;2023-07-29T05:55:33;21.60;99.90
2825;DHT22;1420;51.324;12.344;2023-07-29T05:58:00;22.40;99.90
2825;DHT22;1420;51.324;12.344;2023-07-29T06:00:27;23.20;99.90
2825;DHT22;1420;51.324;12.344;2023-07-29T06:02:55;23.30;99.90
2825;DHT22;1420;51.324;12.344;2023-07-29T06:05:22;24.00;99.90
2825;DHT22;1420;51.324;12.344;2023-07-29T06:07:49;24.50;99.90
2825;DHT22;1420;51.324;12.344;2023-07-29T06:10:17;25.40;99.90
2825;DHT22;1420;51.324;12.344;2023-07-29T06:12:45;25.30;99.90
2825;DHT22;1420;51.324;12.344;2023-07-29T06:15:11;25.40;99.90
2825;DHT22;1420;51.324;12.344;2023-07-29T06:17:39;25.00;99.90
2825;DHT22;1420;51.324;12.344;2023-07-29T06:20:07;25.70;99.90
2825;DHT22;1420;51.324;12.344;2023-07-29T06:22:34;25.70;99.90
2825;DHT22;1420;51.324;12.344;2023-07-29T06:25:01;26.10;99.90
2825;DHT22;1420;51.324;12.344;2023-07-29T06:27:29;26.10;99.90
2825;DHT22;1420;51.324;12.344;2023-07-29T06:29:57;25.60;99.90
2825;DHT22;1420;51.324;12.344;2023-07-29T06:32:25;26.20;99.90
2825;DHT22;1420;51.324;12.344;2023-07-29T06:34:52;26.10;99.90
2825;DHT22;1420;51.324;12.344;2023-07-29T06:37:19;26.40;99.90
2825;DHT22;1420;51.324;12.344;2023-07-29T06:39:46;26.20;99.90
2825;DHT22;1420;51.324;12.344;2023-07-29T06:42:14;25.90;99.90
2825;DHT22;1420;51.324;12.344;2023-07-29T06:44:41;26.10;99.90
2825;DHT22;1420;51.324;12.344;2023-07-29T06:47:08;27.00;99.90
2825;DHT22;1420;51.324;12.344;2023-07-29T06:49:36;27.00;99.20
2825;DHT22;1420;51.324;12.344;2023-07-29T06:52:04;27.10;97.10
2825;DHT22;1420;51.324;12.344;2023-07-29T06:54:31;27.00;96.90
2825;DHT22;1420;51.324;12.344;2023-07-29T06:56:58;26.70;96.60
2825;DHT22;1420;51.324;12.344;2023-07-29T06:59:26;26.30;97.70
2825;DHT22;1420;51.324;12.344;2023-07-29T07:01:53;26.40;98.20
2825;DHT22;1420;51.324;12.344;2023-07-29T07:04:21;27.20;94.20
2825;DHT22;1420;51.324;12.344;2023-07-29T07:06:49;27.10;94.60
2825;DHT22;1420;51.324;12.344;2023-07-29T07:09:16;27.10;94.60
2825;DHT22;1420;51.324;12.344;2023-07-29T07:11:43;27.00;93.50
2825;DHT22;1420;51.324;12.344;2023-07-29T07:14:10;27.20;93.20
2825;DHT22;1420;51.324;12.344;2023-07-29T07:16:38;27.80;91.30
2825;DHT22;1420;51.324;12.344;2023-07-29T07:19:06;27.40;90.90
2825;DHT22;1420;51.324;12.344;2023-07-29T07:21:34;27.40;90.80
2825;DHT22;1420;51.324;12.344;2023-07-29T07:24:01;27.30;91.60
2825;DHT22;1420;51.324;12.344;2023-07-29T07:26:28;27.20;92.00
2825;DHT22;1420;51.324;12.344;2023-07-29T07:28:56;26.00;95.10
2825;DHT22;1420;51.324;12.344;2023-07-29T07:31:23;26.00;95.10
2825;DHT22;1420;51.324;12.344;2023-07-29T07:33:50;25.70;95.10
2825;DHT22;1420;51.324;12.344;2023-07-29T07:36:18;25.80;95.20
2825;DHT22;1420;51.324;12.344;2023-07-29T07:38:46;25.60;96.90
2825;DHT22;1420;51.324;12.344;2023-07-29T07:41:14;25.40;97.20
2825;DHT22;1420;51.324;12.344;2023-07-29T07:43:41;25.40;97.20
2825;DHT22;1420;51.324;12.344;2023-07-29T07:46:08;25.30;98.40
2825;DHT22;1420;51.324;12.344;2023-07-29T07:48:35;25.40;97.40
2825;DHT22;1420;51.324;12.344;2023-07-29T07:51:10;25.20;98.40
2825;DHT22;1420;51.324;12.344;2023-07-29T07:53:36;25.20;98.40
2825;DHT22;1420;51.324;12.344;2023-07-29T07:56:04;25.20;99.80
2825;DHT22;1420;51.324;12.344;2023-07-29T07:58:32;24.80;99.40
2825;DHT22;1420;51.324;12.344;2023-07-29T08:01:01;24.80;99.50
2825;DHT22;1420;51.324;12.344;2023-07-29T08:03:28;24.60;99.90
2825;DHT22;1420;51.324;12.344;2023-07-29T08:05:55;24.80;99.90
2825;DHT22;1420;51.324;12.344;2023-07-29T08:08:22;24.80;99.90
2825;DHT22;1420;51.324;12.344;2023-07-29T08:10:49;24.70;99.90
2825;DHT22;1420;51.324;12.344;2023-07-29T08:13:17;24.60;99.90
2825;DHT22;1420;51.324;12.344;2023-07-29T08:15:46;24.50;99.90
2825;DHT22;1420;51.324;12.344;2023-07-29T08:18:13;24.50;99.90
2825;DHT22;1420;51.324;12.344;2023-07-29T08:20:50;24.70;99.90
2825;DHT22;1420;51.324;12.344;2023-07-29T08:23:09;24.70;99.90
2825;DHT22;1420;51.324;12.344;2023-07-29T08:25:36;24.80;99.90
2825;DHT22;1420;51.324;12.344;2023-07-29T08:28:03;24.70;99.90
2825;DHT22;1420;51.324;12.344;2023-07-29T08:30:31;24.80;99.90
2825;DHT22;1420;51.324;12.344;2023-07-29T08:32:58;24.80;99.90
2825;DHT22;1420;51.324;12.344;2023-07-29T08:35:25;24.70;99.90
2825;DHT22;1420;51.324;12.344;2023-07-29T08:37:53;24.90;99.90
2825;DHT22;1420;51.324;12.344;2023-07-29T08:40:22;25.10;99.90
2825;DHT22;1420;51.324;12.344;2023-07-29T08:42:49;25.20;99.90
2825;DHT22;1420;51.324;12.344;2023-07-29T08:45:16;25.20;99.90
2825;DHT22;1420;51.324;12.344;2023-07-29T08:47:43;25.40;99.90
2825;DHT22;1420;51.324;12.344;2023-07-29T08:50:10;25.40;99.90
2825;DHT22;1420;51.324;12.344;2023-07-29T08:52:38;24.80;99.90
2825;DHT22;1420;51.324;12.344;2023-07-29T08:55:06;24.70;99.90
2825;DHT22;1420;51.324;12.344;2023-07-29T08:57:33;24.80;99.90
2825;DHT22;1420;51.324;12.344;2023-07-29T09:00:00;24.80;99.90
2825;DHT22;1420;51.324;12.344;2023-07-29T09:02:27;24.90;99.90
2825;DHT22;1420;51.324;12.344;2023-07-29T09:04:55;25.30;99.90
2825;DHT22;1420;51.324;12.344;2023-07-29T09:07:23;26.30;98.70
2825;DHT22;1420;51.324;12.344;2023-07-29T09:09:51;26.30;97.90
2825;DHT22;1420;51.324;12.344;2023-07-29T09:12:18;26.20;97.90
2825;DHT22;1420;51.324;12.344;2023-07-29T09:14:45;26.00;97.40
2825;DHT22;1420;51.324;12.344;2023-07-29T09:17:12;26.20;98.00
2825;DHT22;1420;51.324;12.344;2023-07-29T09:19:39;26.40;96.30
2825;DHT22;1420;51.324;12.344;2023-07-29T09:22:16;26.60;95.30
2825;DHT22;1420;51.324;12.344;2023-07-29T09:24:34;26.30;94.70
2825;DHT22;1420;51.324;12.344;2023-07-29T09:27:01;26.20;96.40
2825;DHT22;1420;51.324;12.344;2023-07-29T09:29:28;25.90;95.70
2825;DHT22;1420;51.324;12.344;2023-07-29T09:32:06;25.80;94.80
2825;DHT22;1420;51.324;12.344;2023-07-29T09:34:23;25.60;96.90
2825;DHT22;1420;51.324;12.344;2023-07-29T09:36:50;25.50;97.50
2825;DHT22;1420;51.324;12.344;2023-07-29T09:39:18;25.50;97.60
2825;DHT22;1420;51.324;12.344;2023-07-29T09:41:47;25.50;98.20
2825;DHT22;1420;51.324;12.344;2023-07-29T09:44:14;25.50;98.10
2825;DHT22;1420;51.324;12.344;2023-07-29T09:46:41;25.30;98.50
2825;DHT22;1420;51.324;12.344;2023-07-29T09:49:08;25.00;99.90
2825;DHT22;1420;51.324;12.344;2023-07-29T09:51:37;24.90;99.90
2825;DHT22;1420;51.324;12.344;2023-07-29T09:54:04;24.90;99.90
2825;DHT22;1420;51.324;12.344;2023-07-29T09:56:31;24.90;99.90
2825;DHT22;1420;51.324;12.344;2023-07-29T09:58:59;25.00;99.90
2825;DHT22;1420;51.324;12.344;2023-07-29T10:01:26;25.00;99.90
2825;DHT22;1420;51.324;12.344;2023-07-29T10:03:54;25.20;99.90
2825;DHT22;1420;51.324;12.344;2023-07-29T10:06:20;25.20;99.90
2825;DHT22;1420;51.324;12.344;2023-07-29T10:08:49;25.60;99.70
2825;DHT22;1420;51.324;12.344;2023-07-29T10:11:16;25.60;99.60
2825;DHT22;1420;51.324;12.344;2023-07-29T10:13:44;25.50;99.50
2825;DHT22;1420;51.324;12.344;2023-07-29T10:16:11;25.60;99.20
2825;DHT22;1420;51.324;12.344;2023-07-29T10:18:38;25.80;99.60
2825;DHT22;1420;51.324;12.344;2023-07-29T10:21:06;25.70;99.90
2825;DHT22;1420;51.324;12.344;2023-07-29T10:23:35;25.70;99.40
2825;DHT22;1420;51.324;12.344;2023-07-29T10:26:04;25.50;98.80
2825;DHT22;1420;51.324;12.344;2023-07-29T10:28:30;25.60;99.80
2825;DHT22;1420;51.324;12.344;2023-07-29T10:30:57;25.60;99.40
2825;DHT22;1420;51.324;12.344;2023-07-29T10:33:25;25.40;99.90
2825;DHT22;1420;51.324;12.344;2023-07-29T10:35:53;25.50;99.90
2825;DHT22;1420;51.324;12.344;2023-07-29T10:38:21;25.50;99.90
2825;DHT22;1420;51.324;12.344;2023-07-29T10:40:53;25.50;99.90
2825;DHT22;1420;51.324;12.344;2023-07-29T10:43:24;25.60;99.90
2825;DHT22;1420;51.324;12.344;2023-07-29T10:45:46;25.70;99.90
2825;DHT22;1420;51.324;12.344;2023-07-29T10:48:39;25.60;99.90
2825;DHT22;1420;51.324;12.344;2023-07-29T10:50:42;25.70;99.90
2825;DHT22;1420;51.324;12.344;2023-07-29T10:53:09;25.60;99.90
2825;DHT22;1420;51.324;12.344;2023-07-29T10:55:36;25.70;99.90
2825;DHT22;1420;51.324;12.344;2023-07-29T10:58:05;25.80;99.90
2825;DHT22;1420;51.324;12.344;2023-07-29T11:00:32;26.20;98.10
2825;DHT22;1420;51.324;12.344;2023-07-29T11:03:01;26.20;97.30
2825;DHT22;1420;51.324;12.344;2023-07-29T11:05:41;26.10;97.30
2825;DHT22;1420;51.324;12.344;2023-07-29T11:07:54;26.50;95.90
2825;DHT22;1420;51.324;12.344;2023-07-29T11:10:22;26.40;96.20
2825;DHT22;1420;51.324;12.344;2023-07-29T11:12:50;26.80;94.30
2825;DHT22;1420;51.324;12.344;2023-07-29T11:15:19;26.70;94.30
2825;DHT22;1420;51.324;12.344;2023-07-29T11:18:02;26.70;94.70
2825;DHT22;1420;51.324;12.344;2023-07-29T11:20:30;26.50;93.50
2825;DHT22;1420;51.324;12.344;2023-07-29T11:22:58;26.70;92.40
2825;DHT22;1420;51.324;12.344;2023-07-29T11:25:25;26.40;92.00
2825;DHT22;1420;51.324;12.344;2023-07-29T11:27:53;26.40;92.00
2825;DHT22;1420;51.324;12.344;2023-07-29T11:30:19;25.90;92.80
2825;DHT22;1420;51.324;12.344;2023-07-29T11:32:47;25.90;92.40
2825;DHT22;1420;51.324;12.344;2023-07-29T11:35:15;26.10;92.80
2825;DHT22;1420;51.324;12.344;2023-07-29T11:37:45;26.10;92.70
2825;DHT22;1420;51.324;12.344;2023-07-29T11:40:14;26.20;91.60
2825;DHT22;1420;51.324;12.344;2023-07-29T11:42:42;26.20;91.10
2825;DHT22;1420;51.324;12.344;2023-07-29T11:45:09;26.20;91.00
2825;DHT22;1420;51.324;12.344;2023-07-29T11:47:37;26.30;90.50
2825;DHT22;1420;51.324;12.344;2023-07-29T11:50:06;26.40;90.70
2825;DHT22;1420;51.324;12.344;2023-07-29T11:52:32;26.60;90.00
2825;DHT22;1420;51.324;12.344;2023-07-29T11:55:00;26.80;90.40
2825;DHT22;1420;51.324;12.344;2023-07-29T11:57:27;26.80;88.90
2825;DHT22;1420;51.324;12.344;2023-07-29T11:59:55;26.50;89.10
2825;DHT22;1420;51.324;12.344;2023-07-29T12:02:23;26.30;89.40
2825;DHT22;1420;51.324;12.344;2023-07-29T12:04:50;26.30;89.50
2825;DHT22;1420;51.324;12.344;2023-07-29T12:07:17;26.00;90.30
2825;DHT22;1420;51.324;12.344;2023-07-29T12:09:44;26.00;90.40
2825;DHT22;1420;51.324;12.344;2023-07-29T12:12:12;26.20;90.30
2825;DHT22;1420;51.324;12.344;2023-07-29T12:14:43;26.30;90.10
2825;DHT22;1420;51.324;12.344;2023-07-29T12:17:07;26.30;90.10
2825;DHT22;1420;51.324;12.344;2023-07-29T12:19:37;25.80;90.40
2825;DHT22;1420;51.324;12.344;2023-07-29T12:22:02;25.70;90.80
2825;DHT22;1420;51.324;12.344;2023-07-29T12:24:30;25.50;91.00
2825;DHT22;1420;51.324;12.344;2023-07-29T12:26:57;25.90;91.20
2825;DHT22;1420;51.324;12.344;2023-07-29T12:29:25;25.80;91.10
2825;DHT22;1420;51.324;12.344;2023-07-29T12:32:01;25.90;90.30
2825;DHT22;1420;51.324;12.344;2023-07-29T12:34:27;26.00;90.30
2825;DHT22;1420;51.324;12.344;2023-07-29T12:36:55;26.10;88.60
2825;DHT22;1420;51.324;12.344;2023-07-29T12:39:24;26.40;88.00
2825;DHT22;1420;51.324;12.344;2023-07-29T12:41:51;26.40;89.40
2825;DHT22;1420;51.324;12.344;2023-07-29T12:44:18;26.40;90.40
2825;DHT22;1420;51.324;12.344;2023-07-29T12:46:46;26.50;90.50
2825;DHT22;1420;51.324;12.344;2023-07-29T12:49:13;26.40;90.40
2825;DHT22;1420;51.324;12.344;2023-07-29T12:51:41;26.90;90.20
2825;DHT22;1420;51.324;12.344;2023-07-29T12:54:08;27.00;84.70
2825;DHT22;1420;51.324;12.344;2023-07-29T12:56:36;26.90;81.80
2825;DHT22;1420;51.324;12.344;2023-07-29T12:59:04;26.80;81.70
2825;DHT22;1420;51.324;12.344;2023-07-29T13:01:30;27.30;79.00
2825;DHT22;1420;51.324;12.344;2023-07-29T13:03:57;27.30;78.10
2825;DHT22;1420;51.324;12.344;2023-07-29T13:06:25;26.60;78.60
2825;DHT22;1420;51.324;12.344;2023-07-29T13:08:53;26.50;78.30
2825;DHT22;1420;51.324;12.344;2023-07-29T13:11:20;26.90;78.50
2825;DHT22;1420;51.324;12.344;2023-07-29T13:13:47;27.30;76.00
2825;DHT22;1420;51.324;12.344;2023-07-29T13:16:15;27.30;74.10
2825;DHT22;1420;51.324;12.344;2023-07-29T13:18:43;27.30;75.90
2825;DHT22;1420;51.324;12.344;2023-07-29T13:21:10;27.30;75.90
2825;DHT22;1420;51.324;12.344;2023-07-29T13:23:37;27.40;73.90
2825;DHT22;1420;51.324;12.344;2023-07-29T13:26:05;27.30;74.60
2825;DHT22;1420;51.324;12.344;2023-07-29T13:28:33;27.20;74.40
2825;DHT22;1420;51.324;12.344;2023-07-29T13:31:01;27.20;74.10
2825;DHT22;1420;51.324;12.344;2023-07-29T13:33:28;27.20;73.90
2825;DHT22;1420;51.324;12.344;2023-07-29T13:35:55;27.30;74.50
2825;DHT22;1420;51.324;12.344;2023-07-29T13:38:22;27.20;74.00
2825;DHT22;1420;51.324;12.344;2023-07-29T13:40:49;27.20;75.20
2825;DHT22;1420;51.324;12.344;2023-07-29T13:43:17;27.50;75.00
2825;DHT22;1420;51.324;12.344;2023-07-29T13:45:44;27.20;77.20
2825;DHT22;1420;51.324;12.344;2023-07-29T13:48:11;27.20;75.50
2825;DHT22;1420;51.324;12.344;2023-07-29T13:50:38;27.30;76.00
2825;DHT22;1420;51.324;12.344;2023-07-29T13:53:06;27.50;72.30
2825;DHT22;1420;51.324;12.344;2023-07-29T13:55:34;27.40;72.30
2825;DHT22;1420;51.324;12.344;2023-07-29T13:58:01;27.40;73.10
2825;DHT22;1420;51.324;12.344;2023-07-29T14:00:28;27.30;71.40
2825;DHT22;1420;51.324;12.344;2023-07-29T14:02:56;26.90;70.80
2825;DHT22;1420;51.324;12.344;2023-07-29T14:05:23;26.90;70.80
2825;DHT22;1420;51.324;12.344;2023-07-29T14:07:50;26.80;72.60
2825;DHT22;1420;51.324;12.344;2023-07-29T14:10:18;27.20;69.50
2825;DHT22;1420;51.324;12.344;2023-07-29T14:12:46;27.30;66.40
2825;DHT22;1420;51.324;12.344;2023-07-29T14:15:13;27.30;66.20
2825;DHT22;1420;51.324;12.344;2023-07-29T14:17:40;27.40;69.40
2825;DHT22;1420;51.324;12.344;2023-07-29T14:20:07;27.40;68.20
2825;DHT22;1420;51.324;12.344;2023-07-29T14:22:35;27.50;70.00
2825;DHT22;1420;51.324;12.344;2023-07-29T14:25:03;27.20;70.30
2825;DHT22;1420;51.324;12.344;2023-07-29T14:27:30;27.20;70.50
2825;DHT22;1420;51.324;12.344;2023-07-29T14:29:57;26.90;70.00
2825;DHT22;1420;51.324;12.344;2023-07-29T14:32:25;26.70;75.00
2825;DHT22;1420;51.324;12.344;2023-07-29T14:34:52;26.30;78.10
2825;DHT22;1420;51.324;12.344;2023-07-29T14:37:19;26.00;77.90
2825;DHT22;1420;51.324;12.344;2023-07-29T14:39:46;26.00;77.00
2825;DHT22;1420;51.324;12.344;2023-07-29T14:42:14;25.50;85.90
2825;DHT22;1420;51.324;12.344;2023-07-29T14:44:42;25.10;91.10
2825;DHT22;1420;51.324;12.344;2023-07-29T14:47:09;25.00;91.10
2825;DHT22;1420;51.324;12.344;2023-07-29T14:49:37;24.90;90.40
2825;DHT22;1420;51.324;12.344;2023-07-29T14:52:05;24.50;91.00
2825;DHT22;1420;51.324;12.344;2023-07-29T14:54:32;24.30;91.60
2825;DHT22;1420;51.324;12.344;2023-07-29T14:56:59;24.00;92.60
2825;DHT22;1420;51.324;12.344;2023-07-29T14:59:26;23.50;94.00
2825;DHT22;1420;51.324;12.344;2023-07-29T15:01:54;23.20;99.90
2825;DHT22;1420;51.324;12.344;2023-07-29T15:04:21;23.20;99.90
2825;DHT22;1420;51.324;12.344;2023-07-29T15:06:48;23.10;99.90
2825;DHT22;1420;51.324;12.344;2023-07-29T15:09:18;22.70;99.90
2825;DHT22;1420;51.324;12.344;2023-07-29T15:11:43;22.70;99.90
2825;DHT22;1420;51.324;12.344;2023-07-29T15:14:10;22.30;99.90
2825;DHT22;1420;51.324;12.344;2023-07-29T15:16:37;22.30;99.90
2825;DHT22;1420;51.324;12.344;2023-07-29T15:19:04;22.10;99.90
2825;DHT22;1420;51.324;12.344;2023-07-29T15:21:32;21.40;99.90
2825;DHT22;1420;51.324;12.344;2023-07-29T15:24:00;21.20;99.90
2825;DHT22;1420;51.324;12.344;2023-07-29T15:26:28;21.20;99.90
2825;DHT22;1420;51.324;12.344;2023-07-29T15:28:57;21.10;99.90
2825;DHT22;1420;51.324;12.344;2023-07-29T15:31:24;21.00;99.90
2825;DHT22;1420;51.324;12.344;2023-07-29T15:33:51;21.00;99.90
2825;DHT22;1420;51.324;12.344;2023-07-29T15:36:19;21.10;99.90
2825;DHT22;1420;51.324;12.344;2023-07-29T15:38:47;21.20;99.90
2825;DHT22;1420;51.324;12.344;2023-07-29T15:41:14;21.20;99.90
2825;DHT22;1420;51.324;12.344;2023-07-29T15:43:41;21.20;99.90
2825;DHT22;1420;51.324;12.344;2023-07-29T15:46:09;21.10;99.90